createdAt,value
2023-04-01T00:01:18.034Z,100658.34
2023-04-01T00:03:46.766Z,100658.97
2023-04-01T00:06:17.814Z,100601.91
2023-04-01T00:08:45.946Z,100646.25
2023-04-01T00:11:15.125Z,100673.25
2023-04-01T00:13:43.389Z,100661.06
2023-04-01T00:16:21.062Z,100680.63
2023-04-01T00:18:51.717Z,100675.75
2023-04-01T00:21:20.484Z,100664.41
2023-04-01T00:23:48.502Z,100617.97
2023-04-01T00:26:20.150Z,100669.31
2023-04-01T00:28:48.560Z,100666.09
2023-04-01T00:31:19.348Z,100660.88
2023-04-01T00:33:47.886Z,100630.94
2023-04-01T00:36:19.223Z,100654.44
2023-04-01T00:38:47.985Z,100648.97
2023-04-01T00:41:18.204Z,100625.03
2023-04-01T00:43:48.994Z,100642.22
2023-04-01T00:46:16.811Z,100638.38
2023-04-01T00:48:52.357Z,100642.22
2023-04-01T00:51:25.195Z,100573.28
2023-04-01T00:53:56.963Z,100638.97
2023-04-01T00:56:34.092Z,100646.84
2023-04-01T00:59:06.023Z,100647.66
2023-04-01T01:01:36.129Z,100648.47
2023-04-01T01:04:06.889Z,100631.75
2023-04-01T01:06:40.821Z,100649.56
2023-04-01T01:09:33.111Z,100647.16
2023-04-01T01:12:15.217Z,100614.00
2023-04-01T01:15:10.988Z,100638.53
2023-04-01T01:17:56.935Z,100631.88
2023-04-01T01:20:56.856Z,100642.13
2023-04-01T01:23:50.723Z,100644.03
2023-04-01T01:26:34.807Z,100637.56
2023-04-01T01:29:25.484Z,100634.53
2023-04-01T01:32:02.341Z,100643.00
2023-04-01T01:34:58.130Z,100641.91
2023-04-01T01:37:28.754Z,100563.69
2023-04-01T01:40:03.211Z,100636.97
2023-04-01T01:42:36.155Z,100555.38
2023-04-01T01:45:07.707Z,100593.97
2023-04-01T01:47:37.099Z,100629.69
2023-04-01T01:50:07.515Z,100606.72
2023-04-01T01:52:35.529Z,100615.44
2023-04-01T01:55:24.694Z,100613.56
2023-04-01T01:57:52.739Z,100596.75
2023-04-01T02:00:22.312Z,100625.16
2023-04-01T02:02:52.007Z,100560.88
2023-04-01T02:05:24.466Z,100606.50
2023-04-01T02:08:02.898Z,100614.84
2023-04-01T02:10:35.624Z,100611.63
2023-04-01T02:13:12.760Z,100615.66
2023-04-01T02:15:47.092Z,100582.94
2023-04-01T02:18:17.520Z,100592.41
2023-04-01T02:20:46.065Z,100602.44
2023-04-01T02:23:15.135Z,100580.75
2023-04-01T02:25:44.979Z,100562.94
2023-04-01T02:28:17.787Z,100615.38
2023-04-01T02:30:48.179Z,100609.69
2023-04-01T02:33:16.677Z,100594.22
2023-04-01T02:35:44.769Z,100562.34
2023-04-01T02:38:12.767Z,100599.66
2023-04-01T02:40:50.548Z,100619.69
2023-04-01T02:43:20.388Z,100616.41
2023-04-01T02:45:48.313Z,100623.47
2023-04-01T02:48:16.042Z,100589.09
2023-04-01T02:50:44.757Z,100607.53
2023-04-01T02:53:13.165Z,100578.59
2023-04-01T02:55:41.190Z,100619.66
2023-04-01T02:58:09.059Z,100605.34
2023-04-01T03:00:38.152Z,100611.47
2023-04-01T03:03:06.160Z,100612.28
2023-04-01T03:05:34.325Z,100575.25
2023-04-01T03:08:03.516Z,100583.94
2023-04-01T03:10:33.268Z,100607.13
2023-04-01T03:13:02.160Z,100597.50
2023-04-01T03:15:30.330Z,100616.97
2023-04-01T03:17:59.438Z,100572.31
2023-04-01T03:20:27.629Z,100552.09
2023-04-01T03:22:56.873Z,100597.09
2023-04-01T03:25:24.931Z,100592.75
2023-04-01T03:27:52.884Z,100564.72
2023-04-01T03:30:21.235Z,100551.75
2023-04-01T03:32:51.874Z,100587.94
2023-04-01T03:35:19.873Z,100607.28
2023-04-01T03:37:47.868Z,100573.41
2023-04-01T03:40:17.639Z,100544.53
2023-04-01T03:42:45.810Z,100605.94
2023-04-01T03:45:15.747Z,100585.88
2023-04-01T03:47:44.799Z,100554.78
2023-04-01T03:50:12.861Z,100559.13
2023-04-01T03:52:40.809Z,100563.41
2023-04-01T03:55:08.950Z,100588.53
2023-04-01T03:57:38.078Z,100563.41
2023-04-01T04:00:16.674Z,100573.59
2023-04-01T04:02:46.737Z,100565.03
2023-04-01T04:05:20.138Z,100581.22
2023-04-01T04:07:48.624Z,100602.56
2023-04-01T04:10:16.351Z,100573.28
2023-04-01T04:12:44.438Z,100595.50
2023-04-01T04:15:12.871Z,100575.25
2023-04-01T04:17:55.195Z,100580.66
2023-04-01T04:20:24.627Z,100600.22
2023-04-01T04:22:52.320Z,100593.13
2023-04-01T04:25:21.654Z,100582.84
2023-04-01T04:27:50.635Z,100569.75
2023-04-01T04:30:19.938Z,100605.44
2023-04-01T04:32:48.736Z,100602.72
2023-04-01T04:35:16.675Z,100592.41
2023-04-01T04:37:45.452Z,100597.34
2023-04-01T04:40:13.585Z,100575.09
2023-04-01T04:42:42.745Z,100588.88
2023-04-01T04:45:13.964Z,100565.69
2023-04-01T04:47:48.228Z,100585.34
2023-04-01T04:50:16.337Z,100558.88
2023-04-01T04:52:44.271Z,100592.69
2023-04-01T04:55:12.280Z,100526.16
2023-04-01T04:57:41.335Z,100586.22
2023-04-01T05:00:11.228Z,100582.09
2023-04-01T05:02:54.150Z,100574.75
2023-04-01T05:05:22.133Z,100484.78
2023-04-01T05:07:49.816Z,100512.97
2023-04-01T05:10:20.530Z,100557.59
2023-04-01T05:12:48.212Z,100560.03
2023-04-01T05:15:19.690Z,100571.69
2023-04-01T05:17:47.716Z,100608.25
2023-04-01T05:20:17.024Z,100607.72
2023-04-01T05:22:45.505Z,100584.94
2023-04-01T05:25:13.557Z,100605.00
2023-04-01T05:27:41.600Z,100575.44
2023-04-01T05:30:09.822Z,100590.78
2023-04-01T05:32:47.606Z,100597.91
2023-04-01T05:35:18.494Z,100596.84
2023-04-01T05:37:47.557Z,100557.81
2023-04-01T05:40:15.755Z,100559.69
2023-04-01T05:42:43.832Z,100585.84
2023-04-01T05:45:12.568Z,100559.97
2023-04-01T05:48:03.731Z,100599.03
2023-04-01T05:50:37.796Z,100601.75
2023-04-01T05:53:07.219Z,100607.72
2023-04-01T05:55:37.243Z,100580.06
2023-04-01T05:58:07.056Z,100557.38
2023-04-01T06:00:36.593Z,100581.81
2023-04-01T06:03:05.009Z,100611.38
2023-04-01T06:05:44.396Z,100619.44
2023-04-01T06:08:19.050Z,100596.69
2023-04-01T06:11:14.757Z,100615.59
2023-04-01T06:14:00.496Z,100613.19
2023-04-01T06:17:10.306Z,100593.16
2023-04-01T06:20:02.839Z,100627.38
2023-04-01T06:23:01.960Z,100615.44
2023-04-01T06:25:39.633Z,100617.63
2023-04-01T06:28:31.749Z,100611.91
2023-04-01T06:31:24.073Z,100615.44
2023-04-01T06:34:23.677Z,100613.00
2023-04-01T06:37:06.793Z,100605.66
2023-04-01T06:39:34.523Z,100601.28
2023-04-01T06:42:02.411Z,100601.28
2023-04-01T06:44:41.472Z,100598.31
2023-04-01T06:47:45.461Z,100609.72
2023-04-01T06:51:15.659Z,100619.81
2023-04-01T06:54:12.105Z,100626.38
2023-04-01T06:57:07.851Z,100611.19
2023-04-01T06:59:38.409Z,100616.00
2023-04-01T07:02:27.510Z,100614.97
2023-04-01T07:04:59.170Z,100540.84
2023-04-01T07:07:49.554Z,100607.31
2023-04-01T07:11:04.348Z,100604.88
2023-04-01T07:13:56.354Z,100590.84
2023-04-01T07:16:35.947Z,100606.28
2023-04-01T07:19:03.731Z,100610.63
2023-04-01T07:21:50.739Z,100589.75
2023-04-01T07:24:31.355Z,100614.97
2023-04-01T07:27:13.569Z,100620.09
2023-04-01T07:29:43.458Z,100619.28
2023-04-01T07:32:44.950Z,100618.69
2023-04-01T07:35:29.052Z,100612.19
2023-04-01T07:38:06.203Z,100621.09
2023-04-01T07:40:59.161Z,100607.00
2023-04-01T07:43:50.832Z,100621.91
2023-04-01T07:47:00.998Z,100620.09
2023-04-01T07:49:46.957Z,100610.81
2023-04-01T07:52:27.264Z,100620.91
2023-04-01T07:55:16.696Z,100626.06
2023-04-01T07:58:09.537Z,100623.63
2023-04-01T08:00:55.960Z,100615.59
2023-04-01T08:03:58.986Z,100637.31
2023-04-01T08:06:36.266Z,100634.59
2023-04-01T08:09:11.241Z,100628.06
2023-04-01T08:12:14.906Z,100618.88
2023-04-01T08:15:29.102Z,100630.25
2023-04-01T08:18:41.915Z,100630.78
2023-04-01T08:21:52.222Z,100563.72
2023-04-01T08:24:46.469Z,100631.34
2023-04-01T08:27:36.362Z,100630.19
2023-04-01T08:30:09.379Z,100625.03
2023-04-01T08:32:44.930Z,100632.59
2023-04-01T08:35:33.814Z,100619.91
2023-04-01T08:38:18.270Z,100587.44
2023-04-01T08:41:16.471Z,100633.63
2023-04-01T08:44:35.673Z,100616.56
2023-04-01T08:47:21.620Z,100634.69
2023-04-01T08:50:08.665Z,100625.41
2023-04-01T08:53:12.876Z,100618.84
2023-04-01T08:55:48.805Z,100621.78
2023-04-01T08:58:56.046Z,100599.66
2023-04-01T09:01:48.578Z,100626.22
2023-04-01T09:05:00.052Z,100633.56
2023-04-01T09:07:55.539Z,100639.81
2023-04-01T09:10:34.693Z,100623.78
2023-04-01T09:13:58.577Z,100643.16
2023-04-01T09:16:45.352Z,100639.28
2023-04-01T09:19:37.497Z,100598.38
2023-04-01T09:22:28.696Z,100623.94
2023-04-01T09:25:24.558Z,100629.69
2023-04-01T09:28:18.876Z,100608.69
2023-04-01T09:30:49.761Z,100627.56
2023-04-01T09:33:35.992Z,100632.72
2023-04-01T09:36:22.817Z,100633.53
2023-04-01T09:38:59.202Z,100623.72
2023-04-01T09:41:33.589Z,100619.91
2023-04-01T09:44:24.430Z,100607.22
2023-04-01T09:47:44.168Z,100613.69
2023-04-01T09:50:34.640Z,100601.63
2023-04-01T09:53:44.526Z,100624.25
2023-04-01T09:56:35.915Z,100625.91
2023-04-01T09:59:29.843Z,100624.25
2023-04-01T10:02:45.930Z,100616.13
2023-04-01T10:05:48.097Z,100606.47
2023-04-01T10:08:40.971Z,100594.78
2023-04-01T10:11:45.450Z,100608.75
2023-04-01T10:14:41.202Z,100612.22
2023-04-01T10:17:27.933Z,100610.00
2023-04-01T10:20:03.637Z,100606.72
2023-04-01T10:23:11.840Z,100606.41
2023-04-01T10:26:11.045Z,100601.16
2023-04-01T10:28:57.364Z,100604.63
2023-04-01T10:32:19.358Z,100590.13
2023-04-01T10:35:06.728Z,100600.44
2023-04-01T10:37:56.227Z,100595.28
2023-04-01T10:41:20.716Z,100600.13
2023-04-01T10:44:53.077Z,100600.44
2023-04-01T10:47:49.909Z,100585.94
2023-04-01T10:50:33.377Z,100581.78
2023-04-01T10:53:26.974Z,100580.06
2023-04-01T10:56:58.727Z,100556.06
2023-04-01T11:00:09.480Z,100551.41
2023-04-01T11:03:01.900Z,100550.47
2023-04-01T11:06:27.524Z,100518.53
2023-04-01T11:09:17.682Z,100532.00
2023-04-01T11:12:03.753Z,100495.53
2023-04-01T11:15:01.867Z,100523.22
2023-04-01T11:17:56.460Z,100494.41
2023-04-01T11:20:53.916Z,100502.22
2023-04-01T11:23:33.980Z,100500.97
2023-04-01T11:26:27.534Z,100435.06
2023-04-01T11:29:26.975Z,100496.25
2023-04-01T11:32:15.542Z,100477.94
2023-04-01T11:35:02.258Z,100459.56
2023-04-01T11:37:34.228Z,100467.75
2023-04-01T11:40:43.746Z,100422.38
2023-04-01T11:44:00.529Z,100455.81
2023-04-01T11:47:15.728Z,100410.56
2023-04-01T11:49:51.574Z,100464.41
2023-04-01T11:52:46.573Z,100463.78
2023-04-01T11:55:42.060Z,100457.53
2023-04-01T11:58:50.650Z,100456.94
2023-04-01T12:01:25.525Z,100463.78
2023-04-01T12:04:28.184Z,100449.34
2023-04-01T12:07:14.587Z,100445.00
2023-04-01T12:09:45.466Z,100449.47
2023-04-01T12:12:54.220Z,100443.19
2023-04-01T12:15:32.581Z,100425.72
2023-04-01T12:18:19.195Z,100428.75
2023-04-01T12:21:05.416Z,100434.69
2023-04-01T12:23:40.427Z,100440.97
2023-04-01T12:26:44.836Z,100428.13
2023-04-01T12:29:31.372Z,100407.72
2023-04-01T12:32:44.020Z,100418.81
2023-04-01T12:35:26.258Z,100405.47
2023-04-01T12:38:07.815Z,100404.53
2023-04-01T12:40:42.811Z,100400.50
2023-04-01T12:43:33.993Z,100397.78
2023-04-01T12:46:27.612Z,100369.69
2023-04-01T12:49:16.862Z,100384.94
2023-04-01T12:52:04.965Z,100358.50
2023-04-01T12:54:51.008Z,100376.75
2023-04-01T12:57:21.870Z,100360.06
2023-04-01T12:59:53.567Z,100361.41
2023-04-01T13:02:33.078Z,100355.31
2023-04-01T13:05:22.741Z,100352.28
2023-04-01T13:08:25.709Z,100348.41
2023-04-01T13:11:27.191Z,100340.75
2023-04-01T13:14:30.788Z,100326.78
2023-04-01T13:17:20.166Z,100321.00
2023-04-01T13:20:05.710Z,100299.75
2023-04-01T13:25:29.105Z,100252.00
2023-04-01T13:28:13.924Z,100307.25
2023-04-01T13:30:56.431Z,100289.75
2023-04-01T13:33:33.632Z,100295.22
2023-04-01T13:36:29.406Z,100283.16
2023-04-01T13:39:26.504Z,100276.69
2023-04-01T13:42:29.617Z,100278.34
2023-04-01T13:45:22.541Z,100274.34
2023-04-01T13:48:28.042Z,100277.88
2023-04-01T13:51:07.753Z,100277.59
2023-04-01T13:53:50.031Z,100254.13
2023-04-01T13:56:49.477Z,100250.81
2023-04-01T13:59:38.616Z,100228.31
2023-04-01T14:02:40.664Z,100229.94
2023-04-01T14:05:43.049Z,100229.94
2023-04-01T14:08:52.974Z,100211.94
2023-04-01T14:11:53.788Z,100213.25
2023-04-01T14:14:43.510Z,100216.81
2023-04-01T14:17:39.498Z,100220.63
2023-04-01T14:20:29.168Z,100213.06
2023-04-01T14:23:26.685Z,100198.41
2023-04-01T14:26:00.710Z,100207.22
2023-04-01T14:28:51.204Z,100194.19
2023-04-01T14:31:29.977Z,100188.19
2023-04-01T14:34:26.096Z,100190.69
2023-04-01T14:36:56.781Z,100207.47
2023-04-01T14:39:46.823Z,100209.19
2023-04-01T14:42:30.020Z,100189.00
2023-04-01T14:45:22.948Z,100189.22
2023-04-01T14:48:44.528Z,100183.13
2023-04-01T14:51:22.040Z,100165.69
2023-04-01T14:54:13.474Z,100200.06
2023-04-01T14:56:44.377Z,100157.81
2023-04-01T14:59:26.464Z,100197.31
2023-04-01T15:02:15.597Z,100185.50
2023-04-01T15:05:06.909Z,100174.44
2023-04-01T15:08:01.318Z,100180.88
2023-04-01T15:10:46.185Z,100185.50
2023-04-01T15:13:15.684Z,100152.03
2023-04-01T15:16:08.175Z,100158.81
2023-04-01T15:18:54.830Z,100167.16
2023-04-01T15:21:45.825Z,100167.16
2023-04-01T15:24:37.486Z,100145.78
2023-04-01T15:27:22.838Z,100181.91
2023-04-01T15:30:21.081Z,100171.75
2023-04-01T15:33:18.099Z,100157.66
2023-04-01T15:35:51.652Z,100167.78
2023-04-01T15:38:29.415Z,100159.25
2023-04-01T15:41:18.705Z,100159.72
2023-04-01T15:43:55.630Z,100182.41
2023-04-01T15:46:42.027Z,100155.13
2023-04-01T15:49:44.880Z,100157.34
2023-04-01T15:52:24.541Z,100167.28
2023-04-01T15:55:26.318Z,100171.13
2023-04-01T15:58:32.759Z,100159.72
2023-04-01T16:01:36.500Z,100169.81
2023-04-01T16:04:22.745Z,100177.50
2023-04-01T16:07:10.677Z,100118.19
2023-04-01T16:10:08.154Z,100155.06
2023-04-01T16:13:05.907Z,100161.81
2023-04-01T16:15:42.042Z,100144.97
2023-04-01T16:18:44.264Z,100135.78
2023-04-01T16:21:35.026Z,100109.44
2023-04-01T16:24:12.123Z,100117.03
2023-04-01T16:26:56.088Z,100129.56
2023-04-01T16:29:48.202Z,100118.31
2023-04-01T16:32:50.341Z,100114.94
2023-04-01T16:35:36.411Z,100080.63
2023-04-01T16:38:14.677Z,100114.19
2023-04-01T16:41:02.809Z,100084.19
2023-04-01T16:43:36.815Z,100115.78
2023-04-01T16:46:22.413Z,100109.69
2023-04-01T16:49:18.527Z,100095.72
2023-04-01T16:51:52.747Z,100100.09
2023-04-01T16:54:54.873Z,100109.06
2023-04-01T16:57:33.481Z,100095.09
2023-04-01T17:00:32.309Z,100086.44
2023-04-01T17:03:13.286Z,100089.16
2023-04-01T17:06:02.886Z,100099.75
2023-04-01T17:08:59.978Z,100086.91
2023-04-01T17:11:32.021Z,100095.44
2023-04-01T17:14:30.395Z,100067.91
2023-04-01T17:17:25.918Z,100080.13
2023-04-01T17:20:34.523Z,100080.13
2023-04-01T17:23:15.939Z,100068.72
2023-04-01T17:26:08.353Z,100075.31
2023-04-01T17:28:51.880Z,100080.78
2023-04-01T17:31:25.781Z,100084.31
2023-04-01T17:34:32.836Z,100081.59
2023-04-01T17:37:30.225Z,100080.78
2023-04-01T17:40:34.015Z,100053.53
2023-04-01T17:43:26.811Z,100086.44
2023-04-01T17:45:56.962Z,100086.09
2023-04-01T17:48:46.165Z,100084.19
2023-04-01T17:51:21.758Z,100092.69
2023-04-01T17:53:58.195Z,100116.47
2023-04-01T17:56:41.176Z,100096.53
2023-04-01T17:59:09.120Z,100120.28
2023-04-01T18:01:53.177Z,100091.31
2023-04-01T18:04:38.394Z,100109.69
2023-04-01T18:07:06.133Z,100115.16
2023-04-01T18:10:05.128Z,100101.47
2023-04-01T18:13:01.493Z,100123.34
2023-04-01T18:16:04.046Z,100118.19
2023-04-01T18:19:02.932Z,100129.13
2023-04-01T18:21:59.893Z,100084.47
2023-04-01T18:24:43.013Z,100129.19
2023-04-01T18:27:10.747Z,100162.50
2023-04-01T18:29:56.411Z,100157.84
2023-04-01T18:32:38.636Z,100155.94
2023-04-01T18:35:44.080Z,100172.00
2023-04-01T18:38:20.149Z,100152.78
2023-04-01T18:41:00.045Z,100196.06
2023-04-01T18:43:57.939Z,100212.44
2023-04-01T18:47:04.717Z,100224.28
2023-04-01T18:49:43.333Z,100205.88
2023-04-01T18:52:21.287Z,100242.22
2023-04-01T18:55:04.243Z,100255.25
2023-04-01T18:57:55.916Z,100254.44
2023-04-01T19:01:08.736Z,100244.63
2023-04-01T19:04:25.388Z,100250.88
2023-04-01T19:06:59.467Z,100206.97
2023-04-01T19:09:53.405Z,100287.06
2023-04-01T19:12:41.187Z,100300.53
2023-04-01T19:15:25.936Z,100297.13
2023-04-01T19:18:12.599Z,100305.22
2023-04-01T19:20:58.442Z,100302.50
2023-04-01T19:23:45.151Z,100314.63
2023-04-01T19:26:49.224Z,100272.78
2023-04-01T19:29:44.245Z,100299.50
2023-04-01T19:32:26.902Z,100303.34
2023-04-01T19:35:01.644Z,100323.53
2023-04-01T19:37:45.857Z,100351.25
2023-04-01T19:40:50.132Z,100371.06
2023-04-01T19:43:20.783Z,100398.13
2023-04-01T19:46:13.174Z,100389.97
2023-04-01T19:48:54.315Z,100394.16
2023-04-01T19:51:34.434Z,100415.94
2023-04-01T19:54:34.937Z,100415.94
2023-04-01T19:57:37.480Z,100410.75
2023-04-01T20:00:08.578Z,100400.16
2023-04-01T20:03:31.780Z,100361.34
2023-04-01T20:06:06.976Z,100331.16
2023-04-01T20:08:41.551Z,100377.63
2023-04-01T20:11:31.960Z,100379.44
2023-04-01T20:14:24.563Z,100319.53
2023-04-01T20:17:00.119Z,100313.88
2023-04-01T20:19:39.927Z,100409.34
2023-04-01T20:22:33.842Z,100447.97
2023-04-01T20:25:14.527Z,100440.75
2023-04-01T20:27:56.098Z,100461.47
2023-04-01T20:30:32.077Z,100472.97
2023-04-01T20:33:40.726Z,100485.34
2023-04-01T20:36:22.132Z,100485.75
2023-04-01T20:39:28.282Z,100478.47
2023-04-01T20:42:13.917Z,100494.53
2023-04-01T20:45:19.972Z,100499.13
2023-04-01T20:48:15.089Z,100511.34
2023-04-01T20:50:53.366Z,100483.59
2023-04-01T20:53:33.457Z,100401.50
2023-04-01T20:56:30.196Z,100383.53
2023-04-01T20:59:11.039Z,100369.91
2023-04-01T21:01:57.893Z,100385.56
2023-04-01T21:04:38.713Z,100364.81
2023-04-01T21:07:19.214Z,100424.09
2023-04-01T21:09:59.103Z,100443.75
2023-04-01T21:12:41.071Z,100307.16
2023-04-01T21:15:36.034Z,100416.88
2023-04-01T21:18:12.916Z,100463.75
2023-04-01T21:21:38.787Z,100434.91
2023-04-01T21:24:38.496Z,100445.34
2023-04-01T21:27:13.032Z,100447.03
2023-04-01T21:30:13.384Z,100423.63
2023-04-01T21:33:05.919Z,100422.00
2023-04-01T21:35:55.338Z,100402.38
2023-04-01T21:38:51.995Z,100419.59
2023-04-01T21:41:42.856Z,100407.38
2023-04-01T21:44:10.679Z,100400.28
2023-04-01T21:47:09.683Z,100398.91
2023-04-01T21:49:50.148Z,100415.56
2023-04-01T21:52:44.307Z,100420.16
2023-04-01T21:55:24.492Z,100412.84
2023-04-01T21:58:30.804Z,100400.59
2023-04-01T22:01:22.180Z,100388.16
2023-04-01T22:04:01.894Z,100405.34
2023-04-01T22:06:42.266Z,100403.44
2023-04-01T22:09:22.238Z,100399.91
2023-04-01T22:12:19.443Z,100370.09
2023-04-01T22:14:59.589Z,100408.13
2023-04-01T22:17:50.874Z,100422.56
2023-04-01T22:20:46.318Z,100420.16
2023-04-01T22:23:45.152Z,100425.59
2023-04-01T22:26:32.871Z,100420.44
2023-04-01T22:29:21.462Z,100401.28
2023-04-01T22:32:01.471Z,100391.56
2023-04-01T22:34:47.257Z,100416.44
2023-04-01T22:37:56.708Z,100408.53
2023-04-01T22:40:40.006Z,100402.38
2023-04-01T22:43:14.936Z,100401.03
2023-04-01T22:46:07.342Z,100400.25
2023-04-01T22:49:06.336Z,100406.78
2023-04-01T22:52:05.101Z,100403.25
2023-04-01T22:54:56.956Z,100355.25
2023-04-01T22:57:32.442Z,100401.03
2023-04-01T23:00:11.046Z,100386.50
2023-04-01T23:02:43.283Z,100378.63
2023-04-01T23:05:15.069Z,100352.75
2023-04-01T23:07:48.053Z,100387.72
2023-04-01T23:10:41.946Z,100370.53
2023-04-01T23:13:23.727Z,100400.34
2023-04-01T23:15:54.162Z,100285.47
2023-04-01T23:18:38.637Z,100397.19
2023-04-01T23:21:20.819Z,100398.03
2023-04-01T23:24:23.642Z,100377.03
2023-04-01T23:27:00.999Z,100394.81
2023-04-01T23:29:29.838Z,100368.31
2023-04-01T23:32:05.104Z,100378.78
2023-04-01T23:34:37.143Z,100378.78
2023-04-01T23:37:14.656Z,100361.72
2023-04-01T23:39:45.802Z,100386.03
2023-04-01T23:42:33.583Z,100386.59
2023-04-01T23:45:21.943Z,100385.59
2023-04-01T23:47:51.673Z,100388.56
2023-04-01T23:50:26.857Z,100319.28
2023-04-01T23:53:01.262Z,100328.78
2023-04-01T23:55:33.529Z,100366.88
2023-04-01T23:58:16.417Z,100395.47
